Time;durP1;ratioP1;P1;durP2;ratioP2;P2;SDS_P1;SDS_P2;PMS_P1;PMS_P2;Temp;Humidity;BMP_temperature;BMP_pressure;BME280_temperature;BME280_humidity;BME280_pressure;Samples;Min_cycle;Max_cycle;Signal;HPM_P1;HPM_P2
2022/07/12 00:03:39;;;;;;;7.10;1.50;;;;;;;14.28;73.30;100095.02;213172;1279;140370;-62
2022/07/12 00:08:44;;;;;;;1.30;1.20;;;;;;;14.27;73.48;100099.55;212400;1279;140767;-61
2022/07/12 00:13:49;;;;;;;4.10;1.30;;;;;;;14.25;73.56;100100.34;212984;1279;140784;-63
2022/07/12 00:18:54;;;;;;;2.30;1.30;;;;;;;14.21;73.49;100105.38;212933;1279;139313;-63
2022/07/12 00:23:58;;;;;;;8.20;2.00;;;;;;;14.16;73.68;100106.94;212869;1279;139956;-64
2022/07/12 00:29:03;;;;;;;2.40;1.30;;;;;;;14.19;73.84;100103.37;212901;1279;140468;-63
2022/07/12 00:34:07;;;;;;;7.70;1.40;;;;;;;14.16;73.79;100109.13;212823;1279;141386;-64
2022/07/12 00:39:12;;;;;;;1.50;1.40;;;;;;;14.17;73.69;100106.45;212793;1279;140354;-64
2022/07/12 00:44:17;;;;;;;1.30;1.10;;;;;;;14.11;73.77;100107.23;213195;1279;141913;-62
2022/07/12 00:49:23;;;;;;;3.60;1.70;;;;;;;14.09;74.15;100109.66;212968;1279;139767;-64
2022/07/12 00:54:28;;;;;;;2.80;1.10;;;;;;;14.07;74.14;100109.65;212843;1279;140194;-63
2022/07/12 00:59:33;;;;;;;1.40;1.00;;;;;;;14.09;74.12;100106.73;213091;1279;140491;-62
2022/07/12 01:04:37;;;;;;;1.40;1.40;;;;;;;14.14;74.27;100102.08;212858;1279;141006;-62
2022/07/12 01:09:46;;;;;;;1.40;0.70;;;;;;;14.17;74.16;100105.65;212870;1279;141256;-64
2022/07/12 01:14:54;;;;;;;1.20;1.20;;;;;;;14.13;74.21;100104.75;212802;1281;141675;-64
2022/07/12 01:20:00;;;;;;;1.10;1.00;;;;;;;14.09;74.21;100104.05;213020;1280;141223;-64
2022/07/12 01:25:06;;;;;;;1.70;1.50;;;;;;;14.06;74.34;100102.48;213179;1279;142346;-63
2022/07/12 01:30:10;;;;;;;4.90;1.40;;;;;;;14.06;74.07;100092.44;214205;1279;140395;-63
2022/07/12 01:35:13;;;;;;;3.40;0.90;;;;;;;14.03;74.21;100095.09;215299;1279;141572;-65
2022/07/12 01:40:17;;;;;;;1.50;1.40;;;;;;;14.02;74.10;100092.71;215187;1279;141019;-64
2022/07/12 01:45:23;;;;;;;0.70;0.70;;;;;;;14.05;74.20;100091.52;215285;1279;140533;-63
2022/07/12 01:50:26;;;;;;;2.60;1.30;;;;;;;14.10;74.08;100087.92;215180;1279;141219;-64
2022/07/12 01:55:31;;;;;;;1.40;1.10;;;;;;;14.17;74.29;100087.36;215404;1279;140777;-64
2022/07/12 02:00:36;;;;;;;1.20;1.20;;;;;;;14.24;74.22;100086.83;214728;1279;141177;-63
2022/07/12 02:05:41;;;;;;;4.20;1.40;;;;;;;14.27;74.05;100083.00;213253;1279;139820;-64
2022/07/12 02:10:47;;;;;;;0.90;0.90;;;;;;;14.27;74.03;100088.47;213167;1279;141971;-64
2022/07/12 02:15:52;;;;;;;0.90;0.90;;;;;;;14.27;73.89;100083.96;213023;1279;141990;-63
2022/07/12 02:20:57;;;;;;;1.60;1.00;;;;;;;14.25;73.99;100082.48;213028;1279;141727;-62
2022/07/12 02:26:02;;;;;;;0.80;0.80;;;;;;;14.21;74.15;100078.52;213150;1279;142217;-62
2022/07/12 02:31:08;;;;;;;1.40;1.30;;;;;;;14.12;73.96;100074.60;213056;1279;141869;-61
2022/07/12 02:36:12;;;;;;;4.90;1.30;;;;;;;14.06;74.16;100071.80;213108;1279;143015;-63
2022/07/12 02:41:16;;;;;;;1.10;1.00;;;;;;;14.08;74.41;100072.40;213090;1279;143300;-64
2022/07/12 02:46:20;;;;;;;0.90;0.90;;;;;;;14.08;74.72;100072.02;212979;1279;238323;-64
2022/07/12 02:51:25;;;;;;;1.30;0.90;;;;;;;14.02;74.68;100067.89;212763;1279;139784;-65
2022/07/12 02:56:28;;;;;;;3.90;1.40;;;;;;;13.94;74.78;100064.62;212882;1279;139970;-64
2022/07/12 03:01:33;;;;;;;2.00;1.60;;;;;;;13.86;74.63;100062.64;212866;1279;141159;-63
2022/07/12 03:06:38;;;;;;;7.90;1.10;;;;;;;13.84;75.02;100064.75;212861;1279;152266;-62
2022/07/12 03:11:44;;;;;;;1.00;1.00;;;;;;;13.88;75.22;100065.14;212843;1279;141853;-63
2022/07/12 03:16:48;;;;;;;1.50;1.00;;;;;;;13.92;75.19;100074.30;212819;1279;140624;-63
2022/07/12 03:21:52;;;;;;;2.40;1.30;;;;;;;13.92;75.21;100078.97;213238;1280;140374;-62
2022/07/12 03:26:56;;;;;;;2.10;1.20;;;;;;;13.87;75.20;100071.92;212766;1279;210631;-62
2022/07/12 03:32:01;;;;;;;1.10;1.10;;;;;;;13.90;75.19;100067.84;213210;1279;141631;-62
2022/07/12 03:37:05;;;;;;;2.20;1.50;;;;;;;13.94;75.67;100067.36;213134;1279;141564;-62
2022/07/12 03:42:12;;;;;;;1.60;0.90;;;;;;;14.01;75.40;100061.83;214220;1279;141790;-63
2022/07/12 03:47:17;;;;;;;;;;;;;;;14.12;75.49;100065.44;215197;1279;140762;-65
2022/07/12 03:52:22;;;;;;;1.00;1.00;;;;;;;14.22;75.58;100070.44;215840;1279;126870;-65
2022/07/12 03:57:27;;;;;;;5.50;1.40;;;;;;;14.32;75.28;100073.46;213301;1281;141779;-63
2022/07/12 04:02:31;;;;;;;1.00;1.00;;;;;;;14.43;75.20;100065.12;212952;1280;141183;-62
2022/07/12 04:07:36;;;;;;;2.20;1.30;;;;;;;14.63;75.15;100065.71;213150;1279;141073;-63
2022/07/12 04:12:41;;;;;;;1.30;1.10;;;;;;;14.81;74.79;100061.27;213110;1281;139973;-64
2022/07/12 04:17:47;;;;;;;8.60;1.50;;;;;;;15.07;74.58;100055.85;212970;1280;140531;-64
2022/07/12 04:22:52;;;;;;;1.70;1.60;;;;;;;15.31;73.98;100049.81;213124;1279;139610;-63
2022/07/12 04:27:58;;;;;;;1.60;1.30;;;;;;;16.09;72.78;100045.41;213039;1279;142013;-64
2022/07/12 04:33:02;;;;;;;5.40;1.60;;;;;;;18.68;69.76;100040.36;212836;1280;140775;-65
2022/07/12 04:38:07;;;;;;;3.90;2.20;;;;;;;19.19;68.63;100042.66;213019;1279;139322;-63
2022/07/12 04:43:12;;;;;;;2.10;1.60;;;;;;;19.07;67.76;100045.95;213083;1279;139658;-63
2022/07/12 04:48:16;;;;;;;1.90;1.80;;;;;;;18.84;67.36;100046.80;212862;1279;140658;-63
2022/07/12 04:53:21;;;;;;;7.90;2.00;;;;;;;18.77;67.16;100048.79;213162;1279;140090;-64
2022/07/12 04:58:26;;;;;;;5.00;1.90;;;;;;;18.49;67.03;100049.44;212958;1279;140124;-62
2022/07/12 05:03:30;;;;;;;2.00;1.80;;;;;;;18.10;67.27;100045.91;213181;1279;139907;-62
2022/07/12 05:08:34;;;;;;;2.70;1.40;;;;;;;17.89;67.55;100046.75;213111;1279;140988;-62
2022/07/12 05:13:38;;;;;;;5.50;1.60;;;;;;;17.61;67.62;100047.78;213056;1279;141743;-63
2022/07/12 05:18:43;;;;;;;3.30;1.90;;;;;;;17.48;68.00;100044.94;212977;1279;140088;-63
2022/07/12 05:23:47;;;;;;;3.10;2.00;;;;;;;17.22;68.05;100039.33;213174;1279;140562;-62
2022/07/12 05:28:52;;;;;;;2.60;1.80;;;;;;;17.13;68.55;100037.48;213286;1279;140353;-64
2022/07/12 05:33:57;;;;;;;4.50;2.90;;;;;;;17.23;68.73;100039.91;215189;1279;140418;-64
2022/07/12 05:39:02;;;;;;;5.40;2.90;;;;;;;17.22;68.82;100048.26;215144;1279;139729;-64
2022/07/12 05:44:07;;;;;;;7.90;3.30;;;;;;;17.21;68.92;100041.30;215192;1279;141155;-63
2022/07/12 05:49:12;;;;;;;4.20;2.80;;;;;;;18.04;68.45;100045.38;215320;1279;140624;-63
2022/07/12 05:54:16;;;;;;;5.50;2.60;;;;;;;19.08;67.55;100044.12;214866;1279;141783;-63
2022/07/12 05:59:22;;;;;;;9.70;2.60;;;;;;;19.31;67.04;100041.32;213892;1279;140110;-64
2022/07/12 06:04:27;;;;;;;3.40;2.50;;;;;;;20.49;65.92;100035.63;213737;1279;141101;-63
2022/07/12 06:09:33;;;;;;;4.50;2.60;;;;;;;20.17;65.37;100036.96;213247;1279;140534;-63
2022/07/12 06:14:39;;;;;;;6.10;3.10;;;;;;;20.37;64.74;100035.53;213091;1279;142037;-61
2022/07/12 06:19:45;;;;;;;2.80;2.50;;;;;;;20.60;64.47;100029.16;213235;1279;143139;-62
2022/07/12 06:24:51;;;;;;;14.30;2.90;;;;;;;22.06;62.75;100023.64;213094;1279;140283;-63
2022/07/12 06:29:56;;;;;;;3.50;2.40;;;;;;;24.40;60.50;100021.46;213025;1279;139676;-62
2022/07/12 06:35:02;;;;;;;2.00;1.90;;;;;;;27.50;57.57;100023.77;213008;1279;140086;-62
2022/07/12 06:40:10;;;;;;;3.70;2.00;;;;;;;29.83;54.03;100023.08;213051;1279;139575;-62
2022/07/12 06:45:22;;;;;;;2.40;1.90;;;;;;;31.17;51.35;100027.79;212907;1279;139665;-62
2022/07/12 06:50:28;;;;;;;2.10;1.80;;;;;;;31.28;47.94;100025.88;212790;1280;140414;-63
2022/07/12 06:55:35;;;;;;;2.10;1.20;;;;;;;31.94;46.32;100025.21;212945;1280;141452;-63
2022/07/12 07:00:40;;;;;;;2.70;1.60;;;;;;;33.13;44.48;100014.30;212756;1279;140116;-63
2022/07/12 07:05:46;;;;;;;2.00;0.80;;;;;;;32.32;43.06;100018.85;212895;1280;141056;-64
2022/07/12 07:10:53;;;;;;;1.40;0.60;;;;;;;31.42;42.71;100017.77;212874;1280;142814;-65
2022/07/12 07:16:06;;;;;;;0.90;0.90;;;;;;;31.67;42.61;100017.52;212932;1279;140451;-65
2022/07/12 07:21:16;;;;;;;0.60;0.60;;;;;;;32.17;41.92;100017.70;212916;1279;139926;-64
2022/07/12 07:26:22;;;;;;;2.40;0.90;;;;;;;31.21;41.06;100016.20;214170;1280;139931;-64
2022/07/12 07:31:27;;;;;;;0.90;0.90;;;;;;;30.91;41.95;100008.86;214997;1281;140364;-65
2022/07/12 07:36:33;;;;;;;4.70;1.40;;;;;;;30.75;41.90;100013.15;214854;1279;140772;-66
2022/07/12 07:48:16;;;;;;;1.40;0.90;;;;;;;29.32;42.61;100017.84;214378;1279;141190;-63
2022/07/12 07:53:30;;;;;;;1.00;1.00;;;;;;;28.89;42.17;100021.27;213182;1279;141147;-64
2022/07/12 07:58:34;;;;;;;6.80;1.10;;;;;;;27.96;42.16;100032.61;213307;1279;141659;-63
2022/07/12 08:03:39;;;;;;;3.50;1.10;;;;;;;27.45;42.68;100031.95;213005;1279;141769;-65
2022/07/12 08:08:44;;;;;;;;;;;;;;;26.87;43.34;100030.59;212666;1281;141251;-65
2022/07/12 08:14:09;;;;;;;1.10;0.90;;;;;;;25.99;43.65;100031.23;213692;1279;127143;-63
2022/07/12 08:19:15;;;;;;;2.80;1.20;;;;;;;26.00;44.69;100027.55;212965;1279;140441;-65
2022/07/12 08:24:19;;;;;;;;;;;;;;;26.12;44.32;100029.48;212886;1279;141678;-62
2022/07/12 08:29:24;;;;;;;3.70;1.20;;;;;;;25.83;44.47;100030.44;213381;1279;133488;-63
2022/07/12 08:34:30;;;;;;;3.80;1.00;;;;;;;25.73;45.11;100030.36;212860;1279;140758;-63
2022/07/12 08:39:34;;;;;;;0.80;0.70;;;;;;;25.30;44.65;100036.65;214050;1279;140410;-63
2022/07/12 08:44:40;;;;;;;1.60;1.40;;;;;;;24.82;44.76;100038.04;213264;1279;141211;-63
2022/07/12 08:50:13;;;;;;;1.60;1.10;;;;;;;24.80;45.91;100032.52;213147;1279;140132;-64
2022/07/12 08:55:22;;;;;;;2.60;0.80;;;;;;;25.24;45.70;100029.00;212902;1279;140755;-63
2022/07/12 09:00:28;;;;;;;1.70;1.10;;;;;;;24.74;44.76;100032.39;213010;1279;141435;-65
2022/07/12 09:05:36;;;;;;;1.80;0.80;;;;;;;24.03;45.10;100034.46;212929;1279;140796;-63
2022/07/12 09:11:00;;;;;;;2.80;0.60;;;;;;;24.25;46.01;100025.49;213006;1279;141636;-64
2022/07/12 09:16:14;;;;;;;0.90;0.70;;;;;;;23.98;45.66;100037.57;212893;1278;140615;-63
2022/07/12 09:21:27;;;;;;;1.30;0.80;;;;;;;24.10;46.42;100033.50;212878;1279;142105;-63
2022/07/12 09:26:33;;;;;;;2.80;0.70;;;;;;;24.72;46.18;100017.92;214960;1279;141377;-64
2022/07/12 09:31:40;;;;;;;1.40;0.50;;;;;;;25.11;45.15;100015.11;214764;1279;140825;-64
2022/07/12 09:36:56;;;;;;;0.40;0.40;;;;;;;24.63;44.52;100019.60;215142;1279;140482;-65
2022/07/12 09:42:01;;;;;;;0.60;0.60;;;;;;;24.18;44.98;100019.45;214939;1279;141374;-65
2022/07/12 09:47:13;;;;;;;0.80;0.80;;;;;;;24.45;45.76;100017.70;213999;1281;139992;-64
2022/07/12 09:52:24;;;;;;;1.80;0.90;;;;;;;24.25;44.95;100018.63;213711;1279;140147;-64
2022/07/12 09:57:34;;;;;;;0.50;0.50;;;;;;;24.22;44.97;100022.44;213869;1281;139743;-64
2022/07/12 10:02:40;;;;;;;0.60;0.60;;;;;;;24.77;45.10;100015.39;212735;1281;141560;-66
2022/07/12 10:07:49;;;;;;;0.60;0.60;;;;;;;24.74;43.80;100008.89;213019;1280;140993;-64
2022/07/12 10:12:55;;;;;;;0.40;0.40;;;;;;;24.77;43.71;100012.05;212923;1281;139768;-64
2022/07/12 10:18:00;;;;;;;0.90;0.80;;;;;;;24.71;43.73;100010.95;213111;1281;139990;-65
2022/07/12 10:23:25;;;;;;;0.80;0.80;;;;;;;24.84;43.32;100005.22;212978;1280;139865;-65
2022/07/12 10:29:03;;;;;;;2.30;0.80;;;;;;;25.01;42.66;100003.00;212940;1281;139651;-64
2022/07/12 10:34:21;;;;;;;1.40;0.30;;;;;;;24.80;42.52;100007.81;212797;1281;140419;-65
2022/07/12 10:39:28;;;;;;;1.30;0.40;;;;;;;24.83;42.28;99995.23;212715;1281;139714;-65
2022/07/12 10:44:43;;;;;;;0.50;0.50;;;;;;;25.02;41.57;99988.30;212754;1280;140371;-64
2022/07/12 10:49:52;;;;;;;2.00;1.10;;;;;;;24.92;40.92;99991.61;212668;1281;140590;-64
2022/07/12 10:54:58;;;;;;;4.40;0.50;;;;;;;25.15;40.41;99984.89;212858;1281;139802;-64
2022/07/12 11:00:03;;;;;;;0.50;0.50;;;;;;;25.14;39.95;99979.70;212648;1281;139623;-64
2022/07/12 11:05:09;;;;;;;3.50;0.60;;;;;;;25.12;39.65;99980.95;211959;1280;1346617;-65
2022/07/12 11:10:15;;;;;;;1.80;0.40;;;;;;;25.27;39.45;99981.16;213598;1281;141345;-64
2022/07/12 11:15:21;;;;;;;1.10;0.50;;;;;;;25.49;39.04;99974.59;215065;1280;139953;-64
2022/07/12 11:20:28;;;;;;;2.70;0.70;;;;;;;25.52;38.55;99977.63;214934;1280;139655;-65
2022/07/12 11:25:34;;;;;;;0.40;0.40;;;;;;;25.47;38.42;99975.36;215137;1280;140741;-65
2022/07/12 11:30:48;;;;;;;0.80;0.40;;;;;;;25.40;38.26;99970.48;214859;1281;139930;-64
2022/07/12 11:35:55;;;;;;;0.30;0.30;;;;;;;25.47;38.00;99970.07;215069;1279;141977;-64
2022/07/12 11:41:03;;;;;;;0.80;0.50;;;;;;;25.53;38.38;99968.27;214911;1282;140691;-64
2022/07/12 11:46:09;;;;;;;3.30;0.70;;;;;;;25.64;38.59;99957.45;213576;1281;140144;-64
2022/07/12 11:51:14;;;;;;;0.70;0.70;;;;;;;25.90;38.66;99956.61;213568;1281;140355;-64
2022/07/12 11:56:17;;;;;;;0.80;0.40;;;;;;;25.74;38.18;99952.63;213264;1281;139808;-64
2022/07/12 12:01:21;;;;;;;0.70;0.70;;;;;;;25.69;38.27;99946.80;213496;1280;140452;-64
2022/07/12 12:06:25;;;;;;;0.70;0.70;;;;;;;25.80;38.78;99948.57;213188;1281;139650;-64
2022/07/12 12:11:30;;;;;;;7.00;1.10;;;;;;;25.67;38.32;99941.41;213000;1280;139853;-64
2022/07/12 12:16:36;;;;;;;2.50;0.60;;;;;;;25.50;38.42;99935.12;212821;1281;140595;-65
2022/07/12 12:21:41;;;;;;;1.10;0.80;;;;;;;25.53;38.82;99927.02;213009;1281;140368;-65
2022/07/12 12:26:46;;;;;;;1.00;0.70;;;;;;;25.57;38.82;99925.33;212933;1281;140243;-64
2022/07/12 12:31:57;;;;;;;1.20;1.10;;;;;;;25.60;38.89;99922.88;212851;1281;140275;-64
2022/07/12 12:37:04;;;;;;;1.00;0.80;;;;;;;25.42;38.90;99923.41;212921;1281;140988;-65
2022/07/12 12:42:07;;;;;;;;;;;;;;;25.31;39.01;99925.75;213022;1279;139485;-64
2022/07/12 12:52:48;;;;;;;1.60;0.70;;;;;;;25.34;39.28;99914.73;213085;1281;140942;-64
2022/07/12 12:57:53;;;;;;;0.70;0.50;;;;;;;25.24;38.76;99910.89;213205;1281;140523;-64
2022/07/12 13:03:00;;;;;;;1.20;0.60;;;;;;;25.08;38.72;99905.23;213304;1281;140146;-64
2022/07/12 13:08:08;;;;;;;1.90;0.50;;;;;;;24.98;38.78;99908.27;213565;1280;143406;-64
2022/07/12 13:13:13;;;;;;;0.80;0.50;;;;;;;24.76;38.62;99899.54;214992;1279;140980;-65
2022/07/12 13:18:22;;;;;;;0.70;0.70;;;;;;;24.79;38.81;99896.23;214972;1279;139367;-65
2022/07/12 13:23:27;;;;;;;0.40;0.30;;;;;;;24.91;39.32;99892.51;215058;1279;140398;-65
2022/07/12 13:28:33;;;;;;;0.90;0.70;;;;;;;25.15;39.49;99882.88;215040;1279;140140;-65
2022/07/12 13:33:39;;;;;;;2.60;0.40;;;;;;;25.53;39.13;99888.27;213777;1281;139572;-64
2022/07/12 13:38:45;;;;;;;0.40;0.40;;;;;;;25.84;38.59;99884.66;213393;1279;139871;-64
2022/07/12 13:43:49;;;;;;;2.40;0.40;;;;;;;25.97;38.62;99882.90;213108;1280;140769;-64
2022/07/12 13:48:54;;;;;;;0.80;0.80;;;;;;;25.95;38.71;99884.30;213136;1280;139887;-64
2022/07/12 13:54:00;;;;;;;0.80;0.40;;;;;;;25.75;38.56;99877.60;213020;1281;140222;-64
2022/07/12 13:59:05;;;;;;;0.90;0.60;;;;;;;25.41;38.61;99881.80;213011;1281;140457;-64
2022/07/12 14:04:09;;;;;;;1.00;0.60;;;;;;;25.11;38.36;99878.98;212883;1279;140725;-64
2022/07/12 14:09:14;;;;;;;0.60;0.60;;;;;;;25.03;38.55;99879.34;212994;1281;140391;-65
2022/07/12 14:15:14;;;;;;;4.00;0.80;;;;;;;24.94;38.64;99875.69;212916;1281;141388;-65
2022/07/12 14:19:45;;;;;;;0.50;0.50;;;;;;;25.03;39.12;99880.59;212968;1281;140671;-64
2022/07/12 14:24:54;;;;;;;0.60;0.50;;;;;;;24.93;39.19;99873.45;213018;1280;140891;-64
2022/07/12 14:30:00;;;;;;;0.50;0.50;;;;;;;24.57;39.14;99877.08;213062;1281;141863;-64
2022/07/12 14:35:07;;;;;;;0.70;0.70;;;;;;;24.52;39.47;99871.54;212971;1280;141344;-64
2022/07/12 14:40:15;;;;;;;7.50;1.00;;;;;;;24.72;39.69;99865.45;213000;1281;140782;-64
2022/07/12 14:45:22;;;;;;;1.80;0.50;;;;;;;24.92;39.53;99857.58;213043;1281;141006;-64
2022/07/12 14:50:28;;;;;;;0.50;0.50;;;;;;;24.89;39.29;99852.42;212979;1279;140198;-64
2022/07/12 14:55:40;;;;;;;0.70;0.50;;;;;;;24.50;39.46;99850.55;213132;1281;139887;-64
2022/07/12 15:00:53;;;;;;;0.60;0.60;;;;;;;24.25;40.05;99852.94;213174;1280;140964;-64
2022/07/12 15:06:00;;;;;;;1.90;0.60;;;;;;;24.13;40.18;99849.74;215344;1281;140025;-65
2022/07/12 15:11:07;;;;;;;1.90;0.60;;;;;;;24.13;40.32;99849.59;215185;1281;140479;-64
2022/07/12 15:16:14;;;;;;;;;;;;;;;24.23;40.49;99844.89;215138;1280;140446;-65
2022/07/12 15:21:24;;;;;;;0.90;0.90;;;;;;;24.28;40.48;99842.15;215894;1280;127173;-65
2022/07/12 15:26:31;;;;;;;2.60;0.70;;;;;;;24.23;40.43;99837.75;213802;1281;140481;-64
2022/07/12 15:31:36;;;;;;;3.60;0.60;;;;;;;24.23;40.51;99837.33;213241;1279;140611;-64
2022/07/12 15:36:44;;;;;;;1.70;1.00;;;;;;;24.18;40.43;99828.94;213356;1280;139496;-64
2022/07/12 15:41:51;;;;;;;3.60;1.00;;;;;;;24.06;40.42;99828.20;212967;1281;139729;-64
2022/07/12 15:46:57;;;;;;;1.60;0.80;;;;;;;23.94;40.46;99827.64;212968;1281;139716;-64
2022/07/12 15:57:30;;;;;;;3.60;0.90;;;;;;;23.78;40.01;99810.34;212932;1281;140596;-65
2022/07/12 16:02:35;;;;;;;0.50;0.50;;;;;;;23.90;40.18;99811.67;213108;1281;140207;-64
2022/07/12 16:07:40;;;;;;;0.60;0.60;;;;;;;24.09;40.19;99808.17;212638;1281;140671;-64
2022/07/12 16:12:51;;;;;;;5.40;1.30;;;;;;;24.04;39.81;99815.66;212474;1281;140185;-64
2022/07/12 16:18:00;;;;;;;4.60;0.50;;;;;;;23.91;39.63;99809.88;212708;1279;140374;-64
2022/07/12 16:23:05;;;;;;;1.00;0.60;;;;;;;23.73;39.54;99805.88;212788;1279;140082;-64
2022/07/12 16:28:10;;;;;;;2.90;0.60;;;;;;;23.80;39.16;99800.28;212632;1279;140567;-64
2022/07/12 16:33:16;;;;;;;1.10;0.70;;;;;;;23.99;38.75;99802.75;212960;1279;139425;-63
2022/07/12 16:38:21;;;;;;;2.20;0.80;;;;;;;24.08;38.78;99797.09;212577;1279;140109;-64
2022/07/12 16:43:28;;;;;;;5.20;0.80;;;;;;;23.93;38.61;99802.35;212742;1280;141204;-65
2022/07/12 16:48:45;;;;;;;1.90;0.80;;;;;;;23.78;38.67;99802.01;212757;1281;140102;-65
2022/07/12 16:54:02;;;;;;;1.10;0.70;;;;;;;23.71;38.47;99799.64;212695;1281;139687;-65
2022/07/12 16:59:08;;;;;;;0.40;0.40;;;;;;;23.61;38.36;99801.90;213573;1279;140201;-65
2022/07/12 17:04:13;;;;;;;0.60;0.60;;;;;;;23.56;38.09;99801.45;215282;1279;139617;-65
2022/07/12 17:09:19;;;;;;;0.70;0.70;;;;;;;23.49;38.18;99806.10;215156;1279;140561;-65
2022/07/12 17:14:23;;;;;;;1.20;0.60;;;;;;;23.38;38.34;99813.83;214309;1281;140812;-64
2022/07/12 17:19:29;;;;;;;2.90;0.80;;;;;;;23.05;38.32;99815.19;213155;1281;139820;-64
2022/07/12 17:24:37;;;;;;;0.90;0.40;;;;;;;22.77;38.40;99815.20;213038;1280;139746;-64
2022/07/12 17:29:41;;;;;;;3.70;0.60;;;;;;;22.46;38.53;99822.02;212950;1281;139704;-67
2022/07/12 17:34:48;;;;;;;0.90;0.90;;;;;;;22.30;39.05;99822.64;212908;1280;140001;-64
2022/07/12 17:39:54;;;;;;;0.90;0.50;;;;;;;22.20;39.44;99828.88;213107;1281;140587;-65
2022/07/12 17:44:59;;;;;;;0.60;0.60;;;;;;;22.09;39.79;99832.39;212869;1281;139565;-65
2022/07/12 17:50:10;;;;;;;0.50;0.50;;;;;;;21.97;40.08;99831.91;212936;1281;139666;-65
2022/07/12 17:55:16;;;;;;;1.50;0.50;;;;;;;21.86;40.29;99833.19;212719;1281;140795;-65
2022/07/12 18:00:22;;;;;;;3.20;1.00;;;;;;;21.76;40.48;99820.30;212905;1281;139665;-65
2022/07/12 18:05:28;;;;;;;0.60;0.50;;;;;;;21.67;40.58;99828.91;212903;1279;140980;-64
2022/07/12 18:10:33;;;;;;;2.00;0.80;;;;;;;21.63;40.85;99826.84;213165;1281;139558;-65
2022/07/12 18:15:38;;;;;;;1.10;0.70;;;;;;;21.56;40.90;99826.33;213049;1281;140562;-65
2022/07/12 18:20:51;;;;;;;1.90;0.40;;;;;;;21.49;40.99;99826.70;213079;1280;139672;-64
2022/07/12 18:26:00;;;;;;;21.40;2.00;;;;;;;21.39;41.18;99823.56;212933;1281;140076;-64
2022/07/12 18:31:09;;;;;;;2.20;0.70;;;;;;;21.25;41.25;99827.70;212914;1279;139646;-65
2022/07/12 18:36:17;;;;;;;1.50;0.60;;;;;;;21.11;41.26;99829.42;213203;1281;140428;-65
2022/07/12 18:41:25;;;;;;;0.60;0.60;;;;;;;20.97;41.32;99829.49;212903;1280;140207;-64
2022/07/12 18:46:31;;;;;;;1.00;0.60;;;;;;;20.83;41.47;99834.61;214546;1280;140153;-65
2022/07/12 18:51:36;;;;;;;0.80;0.80;;;;;;;20.72;41.53;99840.42;215167;1281;140278;-65
2022/07/12 18:56:50;;;;;;;0.60;0.50;;;;;;;20.65;41.76;99840.06;215151;1280;140217;-64
2022/07/12 19:02:34;;;;;;;4.60;0.60;;;;;;;20.57;42.10;99843.30;214920;1279;140002;-65
2022/07/12 19:08:21;;;;;;;0.30;0.30;;;;;;;20.46;42.22;99848.30;214595;1281;140224;-65
2022/07/12 19:13:47;;;;;;;1.90;0.90;;;;;;;20.32;42.58;99853.43;213012;1280;139623;-65
2022/07/12 19:19:03;;;;;;;1.50;0.70;;;;;;;20.21;42.88;99853.13;213330;1281;140128;-64
2022/07/12 19:24:22;;;;;;;3.00;1.10;;;;;;;20.10;43.23;99851.21;212649;1279;139389;-65
2022/07/12 19:29:31;;;;;;;3.10;1.00;;;;;;;19.98;43.40;99851.75;213121;1281;140007;-65
2022/07/12 19:34:37;;;;;;;6.40;0.80;;;;;;;19.84;43.72;99860.08;213446;1279;139896;-65
2022/07/12 19:39:43;;;;;;;2.90;0.60;;;;;;;19.75;43.86;99856.05;213046;1279;139876;-65
2022/07/12 19:44:48;;;;;;;;;;;;;;;19.65;44.32;99856.17;212944;1280;162164;-65
2022/07/12 19:49:53;;;;;;;0.50;0.50;;;;;;;19.54;44.48;99858.34;213605;1281;127667;-64
2022/07/12 19:54:58;;;;;;;0.60;0.60;;;;;;;19.47;44.71;99855.86;213116;1279;140655;-66
2022/07/12 20:00:05;;;;;;;1.00;0.70;;;;;;;19.41;44.90;99858.85;213126;1279;141082;-64
2022/07/12 20:05:10;;;;;;;6.70;1.20;;;;;;;19.32;45.24;99854.52;213130;1279;141713;-65
2022/07/12 20:10:15;;;;;;;1.70;1.00;;;;;;;19.22;45.45;99855.47;212816;1279;140844;-64
2022/07/12 20:15:23;;;;;;;0.50;0.50;;;;;;;19.13;45.64;99858.17;213010;1279;161737;-65
2022/07/12 20:20:28;;;;;;;0.50;0.50;;;;;;;19.06;45.79;99865.76;213122;1279;140324;-64
2022/07/12 20:25:35;;;;;;;2.40;0.60;;;;;;;18.96;45.97;99867.22;212818;1279;140591;-62
2022/07/12 20:30:42;;;;;;;0.60;0.60;;;;;;;18.89;46.28;99870.93;213020;1279;139769;-64
2022/07/12 20:35:47;;;;;;;0.30;0.30;;;;;;;18.83;46.29;99869.08;212861;1278;140958;-61
2022/07/12 20:41:13;;;;;;;8.60;1.20;;;;;;;18.78;46.50;99871.83;212713;1279;141436;-64
2022/07/12 20:46:23;;;;;;;1.10;0.70;;;;;;;18.70;46.70;99866.45;213385;1279;210239;-65
2022/07/12 20:51:28;;;;;;;1.20;0.80;;;;;;;18.59;47.02;99866.19;213870;1279;140078;-64
2022/07/12 20:56:32;;;;;;;1.70;0.70;;;;;;;18.48;47.27;99869.11;215205;1279;139766;-65
2022/07/12 21:01:36;;;;;;;2.50;0.90;;;;;;;18.37;47.47;99868.45;215300;1279;140261;-65
2022/07/12 21:06:42;;;;;;;0.90;0.90;;;;;;;18.30;47.64;99872.36;214792;1279;140108;-64
2022/07/12 21:11:46;;;;;;;0.70;0.60;;;;;;;18.18;47.87;99873.46;213159;1279;141388;-63
2022/07/12 21:16:50;;;;;;;0.60;0.60;;;;;;;18.05;48.10;99873.34;213307;1279;140418;-64
2022/07/12 21:21:53;;;;;;;2.80;1.10;;;;;;;17.92;48.50;99870.14;212863;1279;139822;-64
2022/07/12 21:26:58;;;;;;;1.80;1.10;;;;;;;17.82;48.78;99870.95;213032;1279;140500;-62
2022/07/12 21:32:06;;;;;;;0.70;0.70;;;;;;;17.71;48.95;99871.50;212639;1279;141607;-64
2022/07/12 21:37:11;;;;;;;0.80;0.70;;;;;;;17.58;49.16;99872.35;212719;1279;140268;-64
2022/07/12 21:42:16;;;;;;;0.50;0.50;;;;;;;17.46;49.36;99871.92;212396;1281;139996;-64
2022/07/12 21:47:26;;;;;;;0.60;0.60;;;;;;;17.36;49.71;99867.61;212986;1279;139527;-64
2022/07/12 21:52:38;;;;;;;0.60;0.60;;;;;;;17.24;49.86;99869.36;212782;1279;140062;-65
2022/07/12 21:57:42;;;;;;;0.60;0.60;;;;;;;17.15;50.16;99869.94;212622;1279;139832;-64
2022/07/12 22:02:48;;;;;;;0.90;0.60;;;;;;;17.03;50.42;99869.98;212777;1279;139622;-63
2022/07/12 22:07:55;;;;;;;1.30;1.00;;;;;;;16.92;50.68;99872.65;212588;1279;143001;-63
2022/07/12 22:13:00;;;;;;;2.70;0.70;;;;;;;16.83;50.89;99864.43;212870;1279;140717;-63
2022/07/12 22:18:04;;;;;;;1.00;0.70;;;;;;;16.73;51.08;99863.55;212826;1279;142173;-62
2022/07/12 22:23:09;;;;;;;1.00;0.70;;;;;;;16.65;51.51;99864.18;213023;1279;140004;-62
2022/07/12 22:28:13;;;;;;;1.30;0.60;;;;;;;16.56;51.95;99865.89;212771;1279;140801;-62
2022/07/12 22:33:19;;;;;;;1.50;0.60;;;;;;;16.47;52.46;99864.13;213551;1279;141542;-62
2022/07/12 22:38:25;;;;;;;1.00;1.00;;;;;;;16.41;52.71;99868.76;215118;1279;143266;-62
2022/07/12 22:43:30;;;;;;;4.70;1.30;;;;;;;16.37;53.02;99870.42;215106;1279;141109;-62
2022/07/12 22:48:34;;;;;;;0.70;0.60;;;;;;;16.35;53.25;99874.84;215139;1279;142588;-63
2022/07/12 22:53:40;;;;;;;1.40;0.60;;;;;;;16.31;53.51;99871.66;215200;1279;140311;-64
2022/07/12 22:58:47;;;;;;;4.30;1.60;;;;;;;16.29;53.68;99867.95;215275;1279;140191;-64
2022/07/12 23:03:53;;;;;;;3.70;1.30;;;;;;;16.26;54.01;99867.73;213778;1279;816657;-62
2022/07/12 23:08:58;;;;;;;1.10;1.00;;;;;;;16.22;54.20;99865.36;213192;1279;139977;-62
2022/07/12 23:14:04;;;;;;;2.60;0.70;;;;;;;16.14;54.53;99862.84;213090;1279;142039;-63
2022/07/12 23:19:08;;;;;;;1.50;1.10;;;;;;;16.08;54.77;99865.63;212810;1279;140063;-63
2022/07/12 23:24:14;;;;;;;2.20;1.20;;;;;;;16.00;55.14;99869.38;212854;1279;139796;-62
2022/07/12 23:29:18;;;;;;;2.20;1.50;;;;;;;15.92;55.46;99871.68;212831;1279;140418;-65
2022/07/12 23:34:23;;;;;;;3.40;1.00;;;;;;;15.84;55.78;99868.66;212924;1279;140113;-63
2022/07/12 23:39:27;;;;;;;1.20;1.10;;;;;;;15.78;56.02;99868.54;212715;1279;140239;-62
2022/07/12 23:44:33;;;;;;;0.90;0.90;;;;;;;15.70;56.41;99865.83;212829;1279;140325;-62